Time;durP1;ratioP1;P1;durP2;ratioP2;P2;SDS_P1;SDS_P2;PMS_P1;PMS_P2;Temp;Humidity;BMP_temperature;BMP_pressure;BME280_temperature;BME280_humidity;BME280_pressure;Samples;Min_cycle;Max_cycle;Signal;HPM_P1;HPM_P2
2021/09/15 00:01:31;;;;;;;;;;;;;;;;;;5096216;28;19924;-67
2021/09/15 00:03:58;;;;;;;;;;;;;;;;;;5092041;28;19924;-64
2021/09/15 00:06:24;;;;;;;;;;;;;;;;;;5100095;28;19924;-64
2021/09/15 00:08:51;;;;;;;;;;;;;;;;;;5098014;28;19927;-65
2021/09/15 00:11:19;;;;;;;;;;;;;;;;;;5096238;28;20043;-65
2021/09/15 00:13:46;;;;;;;;;;;;;;;;;;5086220;28;19928;-65
2021/09/15 00:16:13;;;;;;;;;;;;;;;;;;5099601;28;19943;-67
2021/09/15 00:18:40;;;;;;;;;;;;;;;;;;5091593;28;19946;-65
2021/09/15 00:21:07;;;;;;;;;;;;;;;;;;5096289;28;20261;-65
2021/09/15 00:23:34;;;;;;;;;;;;;;;;;;5089930;28;19930;-64
2021/09/15 00:26:01;;;;;;;;;;;;;;;;;;5099253;28;19931;-63
2021/09/15 00:28:28;;;;;;;;;;;;;;;;;;5098043;28;19930;-65
2021/09/15 00:30:55;;;;;;;;;;;;;;;;;;5096338;28;19934;-65
2021/09/15 00:33:22;;;;;;;;;;;;;;;;;;5096703;28;20038;-65
2021/09/15 00:35:49;;;;;;;;;;;;;;;;;;5099491;28;19928;-65
2021/09/15 00:38:15;;;;;;;;;;;;;;;;;;5098338;28;19924;-64
2021/09/15 00:40:42;;;;;;;;;;;;;;;;;;5096423;28;19931;-64
2021/09/15 00:43:09;;;;;;;;;;;;;;;;;;5095855;28;19928;-64
2021/09/15 00:45:36;;;;;;;;;;;;;;;;;;5099127;28;19924;-64
2021/09/15 00:48:03;;;;;;;;;;;;;;;;;;5098903;28;19992;-63
2021/09/15 00:50:30;;;;;;;;;;;;;;;;;;5096715;28;19930;-66
2021/09/15 00:52:57;;;;;;;;;;;;;;;;;;5096185;28;19924;-65
2021/09/15 00:55:24;;;;;;;;;;;;;;;;;;5098438;28;19931;-68
2021/09/15 00:57:51;;;;;;;;;;;;;;;;;;5098458;28;19934;-63
2021/09/15 01:00:18;;;;;;;;;;;;;;;;;;5096209;28;19924;-63
2021/09/15 01:02:45;;;;;;;;;;;;;;;;;;5096209;28;19936;-64
2021/09/15 01:05:12;;;;;;;;;;;;;;;;;;5097942;28;19924;-65
2021/09/15 01:07:39;;;;;;;;;;;;;;;;;;5093518;28;19924;-64
2021/09/15 01:10:06;;;;;;;;;;;;;;;;;;5090212;28;19928;-63
2021/09/15 01:12:33;;;;;;;;;;;;;;;;;;5096226;28;19928;-65
2021/09/15 01:15:00;;;;;;;;;;;;;;;;;;5098514;28;19924;-64
2021/09/15 01:17:27;;;;;;;;;;;;;;;;;;5103159;28;19967;-65
2021/09/15 01:19:54;;;;;;;;;;;;;;;;;;5100124;28;19924;-63
2021/09/15 01:22:22;;;;;;;;;;;;;;;;;;5092816;28;19931;-63
2021/09/15 01:24:49;;;;;;;;;;;;;;;;;;5101227;28;19924;-63
2021/09/15 01:27:16;;;;;;;;;;;;;;;;;;5103065;28;20321;-64
2021/09/15 01:29:44;;;;;;;;;;;;;;;;;;5099614;28;19931;-64
2021/09/15 01:32:11;;;;;;;;;;;;;;;;;;5099276;28;19924;-63
2021/09/15 01:34:38;;;;;;;;;;;;;;;;;;5098707;28;20295;-64
2021/09/15 01:37:05;;;;;;;;;;;;;;;;;;5092873;28;19953;-64
2021/09/15 01:39:32;;;;;;;;;;;;;;;;;;5099169;28;19924;-64
2021/09/15 01:41:59;;;;;;;;;;;;;;;;;;5099679;28;20447;-65
2021/09/15 01:44:25;;;;;;;;;;;;;;;;;;5088512;28;19978;-65
2021/09/15 01:46:52;;;;;;;;;;;;;;;;;;5103541;28;19931;-64
2021/09/15 01:49:19;;;;;;;;;;;;;;;;;;5092478;28;19930;-63
2021/09/15 01:51:46;;;;;;;;;;;;;;;;;;5098888;28;19975;-65
2021/09/15 01:54:13;;;;;;;;;;;;;;;;;;5099823;28;19979;-66
2021/09/15 01:56:40;;;;;;;;;;;;;;;;;;5103343;28;19924;-64
2021/09/15 01:59:07;;;;;;;;;;;;;;;;;;5096013;28;19935;-64
2021/09/15 02:01:34;;;;;;;;;;;;;;;;;;5094430;28;20230;-66
2021/09/15 02:04:01;;;;;;;;;;;;;;;;;;5099100;28;20368;-63
2021/09/15 02:06:28;;;;;;;;;;;;;;;;;;5102046;28;19927;-63
2021/09/15 02:08:55;;;;;;;;;;;;;;;;;;5099379;28;19924;-64
2021/09/15 02:11:22;;;;;;;;;;;;;;;;;;5098233;28;19928;-63
2021/09/15 02:13:49;;;;;;;;;;;;;;;;;;5098769;28;19924;-64
2021/09/15 02:16:16;;;;;;;;;;;;;;;;;;5102516;28;20315;-63
2021/09/15 02:18:43;;;;;;;;;;;;;;;;;;5098917;28;19924;-65
2021/09/15 02:21:10;;;;;;;;;;;;;;;;;;5098178;28;19924;-64
2021/09/15 02:23:36;;;;;;;;;;;;;;;;;;5094088;28;19924;-64
2021/09/15 02:26:03;;;;;;;;;;;;;;;;;;5102046;28;20350;-65
2021/09/15 02:28:30;;;;;;;;;;;;;;;;;;5098594;28;20272;-65
2021/09/15 02:30:57;;;;;;;;;;;;;;;;;;5098133;28;19928;-64
2021/09/15 02:33:24;;;;;;;;;;;;;;;;;;5097837;28;19924;-65
2021/09/15 02:35:51;;;;;;;;;;;;;;;;;;5101581;28;20307;-65
2021/09/15 02:38:18;;;;;;;;;;;;;;;;;;5099361;28;19924;-66
2021/09/15 02:40:45;;;;;;;;;;;;;;;;;;5097900;28;20315;-66
2021/09/15 02:43:12;;;;;;;;;;;;;;;;;;5097592;28;19924;-65
2021/09/15 02:45:39;;;;;;;;;;;;;;;;;;5100602;28;20415;-65
2021/09/15 02:48:06;;;;;;;;;;;;;;;;;;5092757;28;20193;-66
2021/09/15 02:50:33;;;;;;;;;;;;;;;;;;5087506;28;19924;-65
2021/09/15 02:53:00;;;;;;;;;;;;;;;;;;5097187;28;19924;-64
2021/09/15 02:55:27;;;;;;;;;;;;;;;;;;5089204;28;19928;-66
2021/09/15 02:57:54;;;;;;;;;;;;;;;;;;5099347;28;19936;-66
2021/09/15 03:00:21;;;;;;;;;;;;;;;;;;5090913;28;19924;-64
2021/09/15 03:02:48;;;;;;;;;;;;;;;;;;5097590;28;19943;-65
2021/09/15 03:05:14;;;;;;;;;;;;;;;;;;5099244;28;19924;-65
2021/09/15 03:07:41;;;;;;;;;;;;;;;;;;5090711;28;19924;-64
2021/09/15 03:10:08;;;;;;;;;;;;;;;;;;5097552;28;19928;-66
2021/09/15 03:12:35;;;;;;;;;;;;;;;;;;5087506;28;19932;-65
2021/09/15 03:15:02;;;;;;;;;;;;;;;;;;5099210;28;19924;-65
2021/09/15 03:17:29;;;;;;;;;;;;;;;;;;5090474;28;19924;-65
2021/09/15 03:19:56;;;;;;;;;;;;;;;;;;5097206;28;19924;-66
2021/09/15 03:22:23;;;;;;;;;;;;;;;;;;5097172;28;19931;-65
2021/09/15 03:24:50;;;;;;;;;;;;;;;;;;5098768;28;19924;-65
2021/09/15 03:27:17;;;;;;;;;;;;;;;;;;5093301;28;19930;-65
2021/09/15 03:29:44;;;;;;;;;;;;;;;;;;5096674;28;19924;-65
2021/09/15 03:32:11;;;;;;;;;;;;;;;;;;5097138;28;19979;-65
2021/09/15 03:34:38;;;;;;;;;;;;;;;;;;5098674;28;20016;-65
2021/09/15 03:37:05;;;;;;;;;;;;;;;;;;5099880;28;19924;-66
2021/09/15 03:39:32;;;;;;;;;;;;;;;;;;5096995;28;20307;-67
2021/09/15 03:44:33;;;;;;;;;;;;;;;;;;5051399;28;19951;-70
2021/09/15 03:46:59;;;;;;;;;;;;;;;;;;5050579;28;20189;-71
2021/09/15 03:49:26;;;;;;;;;;;;;;;;;;5053018;28;19925;-72
2021/09/15 03:51:53;;;;;;;;;;;;;;;;;;5051269;28;20028;-71
2021/09/15 03:54:20;;;;;;;;;;;;;;;;;;5054705;28;19931;-72
2021/09/15 03:56:47;;;;;;;;;;;;;;;;;;5050332;28;19929;-71
2021/09/15 03:59:14;;;;;;;;;;;;;;;;;;5053153;28;20380;-72
2021/09/15 04:01:41;;;;;;;;;;;;;;;;;;5056484;28;19925;-72
2021/09/15 04:04:08;;;;;;;;;;;;;;;;;;5054967;28;19975;-72
2021/09/15 04:06:35;;;;;;;;;;;;;;;;;;5051315;28;20388;-72
2021/09/15 04:09:02;;;;;;;;;;;;;;;;;;5052611;28;19925;-71
2021/09/15 04:11:29;;;;;;;;;;;;;;;;;;5054233;28;20364;-71
2021/09/15 04:13:56;;;;;;;;;;;;;;;;;;5055512;28;19969;-71
2021/09/15 04:16:23;;;;;;;;;;;;;;;;;;5049298;28;19931;-72
2021/09/15 04:18:50;;;;;;;;;;;;;;;;;;5052745;28;19925;-72
2021/09/15 04:21:17;;;;;;;;;;;;;;;;;;5054701;28;20307;-70
2021/09/15 04:23:54;;;;;;;;;;;;;;;;;;5056399;28;20411;-72
2021/09/15 04:31:50;;;;;;;;;;;;;;;;;;5052975;28;19924;-71
2021/09/15 04:34:17;;;;;;;;;;;;;;;;;;5050942;28;19925;-72
2021/09/15 04:36:44;;;;;;;;;;;;;;;;;;5052700;28;19924;-72
2021/09/15 04:39:11;;;;;;;;;;;;;;;;;;5055376;28;19947;-71
2021/09/15 04:41:38;;;;;;;;;;;;;;;;;;5052787;28;20347;-72
2021/09/15 04:44:05;;;;;;;;;;;;;;;;;;5060091;28;19925;-70
2021/09/15 04:46:32;;;;;;;;;;;;;;;;;;5068307;28;19925;-70
2021/09/15 04:48:59;;;;;;;;;;;;;;;;;;5066885;28;19935;-69
2021/09/15 04:51:26;;;;;;;;;;;;;;;;;;5065910;28;19924;-72
2021/09/15 04:53:53;;;;;;;;;;;;;;;;;;5061991;28;19932;-71
2021/09/15 04:56:20;;;;;;;;;;;;;;;;;;5067421;28;19928;-72
2021/09/15 04:58:47;;;;;;;;;;;;;;;;;;5066625;28;19930;-71
2021/09/15 05:01:14;;;;;;;;;;;;;;;;;;5063765;28;19925;-72
2021/09/15 05:03:41;;;;;;;;;;;;;;;;;;5066151;28;19929;-72
2021/09/15 05:06:07;;;;;;;;;;;;;;;;;;5071526;28;19928;-71
2021/09/15 05:08:34;;;;;;;;;;;;;;;;;;5071412;28;19925;-71
2021/09/15 05:11:01;;;;;;;;;;;;;;;;;;5069392;28;19931;-71
2021/09/15 05:13:28;;;;;;;;;;;;;;;;;;5065700;28;19991;-74
2021/09/15 05:15:55;;;;;;;;;;;;;;;;;;5071953;28;19925;-73
2021/09/15 05:18:23;;;;;;;;;;;;;;;;;;5072945;28;19924;-72
2021/09/15 05:20:50;;;;;;;;;;;;;;;;;;5061966;28;19975;-73
2021/09/15 05:23:17;;;;;;;;;;;;;;;;;;5066593;28;19977;-71
2021/09/15 05:25:44;;;;;;;;;;;;;;;;;;5068886;28;20377;-72
2021/09/15 05:28:11;;;;;;;;;;;;;;;;;;5066968;28;19931;-73
2021/09/15 05:30:38;;;;;;;;;;;;;;;;;;5070916;28;19928;-72
2021/09/15 05:33:06;;;;;;;;;;;;;;;;;;5060541;28;19931;-72
2021/09/15 05:35:33;;;;;;;;;;;;;;;;;;5067744;28;20002;-72
2021/09/15 05:38:00;;;;;;;;;;;;;;;;;;5066338;28;19925;-71
2021/09/15 05:40:27;;;;;;;;;;;;;;;;;;5065614;28;19924;-72
2021/09/15 05:42:54;;;;;;;;;;;;;;;;;;5052896;28;19932;-71
2021/09/15 05:45:21;;;;;;;;;;;;;;;;;;5029395;28;19925;-70
2021/09/15 05:47:48;;;;;;;;;;;;;;;;;;5036480;28;19935;-72
2021/09/15 05:50:15;;;;;;;;;;;;;;;;;;5033722;28;19932;-72
2021/09/15 05:52:42;;;;;;;;;;;;;;;;;;5032098;28;19933;-72
2021/09/15 05:55:09;;;;;;;;;;;;;;;;;;5034473;28;19933;-71
2021/09/15 05:57:37;;;;;;;;;;;;;;;;;;5035714;28;20296;-71
2021/09/15 06:00:04;;;;;;;;;;;;;;;;;;5037663;28;20359;-72
2021/09/15 06:02:31;;;;;;;;;;;;;;;;;;5033526;28;20308;-72
2021/09/15 06:04:58;;;;;;;;;;;;;;;;;;5034701;28;19929;-71
2021/09/15 06:07:25;;;;;;;;;;;;;;;;;;5035107;28;19925;-71
2021/09/15 06:09:52;;;;;;;;;;;;;;;;;;5037579;28;20019;-72
2021/09/15 06:12:19;;;;;;;;;;;;;;;;;;5031071;28;20009;-70
2021/09/15 06:14:46;;;;;;;;;;;;;;;;;;5034028;28;19932;-72
2021/09/15 06:17:13;;;;;;;;;;;;;;;;;;5034814;28;19925;-71
2021/09/15 06:19:40;;;;;;;;;;;;;;;;;;5037698;28;19924;-72
2021/09/15 06:22:07;;;;;;;;;;;;;;;;;;5031889;28;19925;-72
2021/09/15 06:24:34;;;;;;;;;;;;;;;;;;5033355;28;19932;-71
2021/09/15 06:27:01;;;;;;;;;;;;;;;;;;5033971;28;20024;-72
2021/09/15 06:29:28;;;;;;;;;;;;;;;;;;5037292;28;19935;-70
2021/09/15 06:31:55;;;;;;;;;;;;;;;;;;5033733;28;19925;-72
2021/09/15 06:34:22;;;;;;;;;;;;;;;;;;5033372;28;19929;-72
2021/09/15 06:36:49;;;;;;;;;;;;;;;;;;5030280;28;20286;-71
2021/09/15 06:39:16;;;;;;;;;;;;;;;;;;5029219;28;20305;-71
2021/09/15 06:41:43;;;;;;;;;;;;;;;;;;5032327;28;19980;-71
2021/09/15 06:44:10;;;;;;;;;;;;;;;;;;5056649;28;19936;-72
2021/09/15 06:46:37;;;;;;;;;;;;;;;;;;5063867;28;20416;-72
2021/09/15 06:49:04;;;;;;;;;;;;;;;;;;5063575;28;19925;-73
2021/09/15 06:51:31;;;;;;;;;;;;;;;;;;5058747;28;20296;-72
2021/09/15 06:53:58;;;;;;;;;;;;;;;;;;5060463;28;19929;-71
2021/09/15 06:56:25;;;;;;;;;;;;;;;;;;5063757;28;19924;-71
2021/09/15 06:58:52;;;;;;;;;;;;;;;;;;5063321;28;19925;-72
2021/09/15 07:01:20;;;;;;;;;;;;;;;;;;5055899;28;19935;-71
2021/09/15 07:03:47;;;;;;;;;;;;;;;;;;5060032;28;20300;-71
2021/09/15 07:06:14;;;;;;;;;;;;;;;;;;5064392;28;19925;-72
2021/09/15 07:08:41;;;;;;;;;;;;;;;;;;5063126;28;19924;-71
2021/09/15 07:11:08;;;;;;;;;;;;;;;;;;5059517;28;19951;-72
2021/09/15 07:13:35;;;;;;;;;;;;;;;;;;5059366;28;19925;-73
2021/09/15 07:16:02;;;;;;;;;;;;;;;;;;5064107;28;19924;-71
2021/09/15 07:18:29;;;;;;;;;;;;;;;;;;5063817;28;19929;-72
2021/09/15 07:20:55;;;;;;;;;;;;;;;;;;5060128;28;19924;-71
2021/09/15 07:23:22;;;;;;;;;;;;;;;;;;5059234;28;19944;-72
2021/09/15 07:25:49;;;;;;;;;;;;;;;;;;5064293;28;19931;-72
2021/09/15 07:28:16;;;;;;;;;;;;;;;;;;5064284;28;20015;-72
2021/09/15 07:30:43;;;;;;;;;;;;;;;;;;5061221;28;19931;-71
2021/09/15 07:33:10;;;;;;;;;;;;;;;;;;5060486;28;19972;-71
2021/09/15 07:35:37;;;;;;;;;;;;;;;;;;5064933;28;19954;-71
2021/09/15 07:38:04;;;;;;;;;;;;;;;;;;5064270;28;19931;-71
2021/09/15 07:40:31;;;;;;;;;;;;;;;;;;5061848;28;19925;-71
2021/09/15 07:42:59;;;;;;;;;;;;;;;;;;5049862;28;19936;-70
2021/09/15 07:45:26;;;;;;;;;;;;;;;;;;5034596;28;19952;-71
2021/09/15 07:47:53;;;;;;;;;;;;;;;;;;5036046;28;20015;-71
2021/09/15 07:50:20;;;;;;;;;;;;;;;;;;5028427;28;19925;-70
2021/09/15 07:52:47;;;;;;;;;;;;;;;;;;5030802;28;19993;-71
2021/09/15 07:55:14;;;;;;;;;;;;;;;;;;5033309;28;19995;-69
2021/09/15 07:57:41;;;;;;;;;;;;;;;;;;5034621;28;19925;-71
2021/09/15 08:00:08;;;;;;;;;;;;;;;;;;5034786;28;19925;-71
2021/09/15 08:02:35;;;;;;;;;;;;;;;;;;5032732;28;19926;-71
2021/09/15 08:05:02;;;;;;;;;;;;;;;;;;5033003;28;19925;-72
2021/09/15 08:07:29;;;;;;;;;;;;;;;;;;5037263;28;19929;-71
2021/09/15 08:09:56;;;;;;;;;;;;;;;;;;5037545;28;19929;-72
2021/09/15 08:12:23;;;;;;;;;;;;;;;;;;5030397;28;19969;-72
2021/09/15 08:14:50;;;;;;;;;;;;;;;;;;5034902;28;19940;-70
2021/09/15 08:17:17;;;;;;;;;;;;;;;;;;5034518;28;19925;-70
2021/09/15 08:19:44;;;;;;;;;;;;;;;;;;5036384;28;19924;-70
2021/09/15 08:22:11;;;;;;;;;;;;;;;;;;5029343;28;19969;-69
2021/09/15 08:24:38;;;;;;;;;;;;;;;;;;5026595;28;19932;-71
2021/09/15 08:27:05;;;;;;;;;;;;;;;;;;5037722;28;19925;-70
2021/09/15 08:29:32;;;;;;;;;;;;;;;;;;5039036;28;20315;-72
2021/09/15 08:31:59;;;;;;;;;;;;;;;;;;5033504;28;19930;-72
2021/09/15 08:34:26;;;;;;;;;;;;;;;;;;5036980;28;19925;-72
2021/09/15 08:36:53;;;;;;;;;;;;;;;;;;5036292;28;19933;-72
2021/09/15 08:39:21;;;;;;;;;;;;;;;;;;5036450;28;20178;-74
2021/09/15 08:41:49;;;;;;;;;;;;;;;;;;5033329;28;19926;-70
2021/09/15 08:44:15;;;;;;;;;;;;;;;;;;5061857;28;20380;-70
2021/09/15 08:46:42;;;;;;;;;;;;;;;;;;5066561;28;20387;-72
2021/09/15 08:49:09;;;;;;;;;;;;;;;;;;5055212;28;20332;-71
2021/09/15 08:51:36;;;;;;;;;;;;;;;;;;5060122;28;19936;-70
2021/09/15 08:54:04;;;;;;;;;;;;;;;;;;5065041;28;20381;-72
2021/09/15 08:56:31;;;;;;;;;;;;;;;;;;5066273;28;19925;-71
2021/09/15 08:58:58;;;;;;;;;;;;;;;;;;5067774;28;19931;-71
2021/09/15 09:01:25;;;;;;;;;;;;;;;;;;5052996;28;20384;-70
2021/09/15 09:03:53;;;;;;;;;;;;;;;;;;5064670;28;19928;-72
2021/09/15 09:06:21;;;;;;;;;;;;;;;;;;5062063;28;20414;-73
2021/09/15 09:08:52;;;;;;;;;;;;;;;;;;5055278;28;19979;-70
2021/09/15 09:11:19;;;;;;;;;;;;;;;;;;5058924;28;19979;-71
2021/09/15 09:13:46;;;;;;;;;;;;;;;;;;5065432;28;19924;-70
2021/09/15 09:16:13;;;;;;;;;;;;;;;;;;5065467;28;19924;-70
2021/09/15 09:18:40;;;;;;;;;;;;;;;;;;5065591;28;19935;-72
2021/09/15 09:21:07;;;;;;;;;;;;;;;;;;5048536;28;20028;-69
2021/09/15 09:23:34;;;;;;;;;;;;;;;;;;5064961;28;19924;-73
2021/09/15 09:26:01;;;;;;;;;;;;;;;;;;5065592;28;19931;-71
2021/09/15 09:28:28;;;;;;;;;;;;;;;;;;5069338;28;20177;-71
2021/09/15 09:30:55;;;;;;;;;;;;;;;;;;5059633;28;19936;-72
2021/09/15 09:33:22;;;;;;;;;;;;;;;;;;5063883;28;19924;-72
2021/09/15 09:35:49;;;;;;;;;;;;;;;;;;5065350;28;19935;-69
2021/09/15 09:38:16;;;;;;;;;;;;;;;;;;5065850;28;20033;-71
2021/09/15 09:40:43;;;;;;;;;;;;;;;;;;5059183;28;20304;-71
2021/09/15 09:43:10;;;;;;;;;;;;;;;;;;5065547;22;19936;-66
2021/09/15 09:45:37;;;;;;;;;;;;;;;;;;5038472;28;19925;-68
2021/09/15 09:48:04;;;;;;;;;;;;;;;;;;5031016;28;20003;-67
2021/09/15 09:50:32;;;;;;;;;;;;;;;;;;5026684;28;19932;-65
2021/09/15 09:53:00;;;;;;;;;;;;;;;;;;5033696;28;19971;-69
2021/09/15 09:55:27;;;;;;;;;;;;;;;;;;5033723;28;19925;-67
2021/09/15 09:57:54;;;;;;;;;;;;;;;;;;5030442;28;19924;-68
2021/09/15 10:00:20;;;;;;;;;;;;;;;;;;5034412;28;19932;-65
2021/09/15 10:02:47;;;;;;;;;;;;;;;;;;5029980;28;20020;-65
2021/09/15 10:05:14;;;;;;;;;;;;;;;;;;5034949;28;19925;-66
2021/09/15 10:07:41;;;;;;;;;;;;;;;;;;5037471;28;19931;-68
2021/09/15 10:10:08;;;;;;;;;;;;;;;;;;5028861;28;19925;-65
2021/09/15 10:12:35;;;;;;;;;;;;;;;;;;5032901;28;19931;-65
2021/09/15 10:15:02;;;;;;;;;;;;;;;;;;5034861;28;20419;-65
2021/09/15 10:17:29;;;;;;;;;;;;;;;;;;5037167;28;19932;-67
2021/09/15 10:19:56;;;;;;;;;;;;;;;;;;5027959;28;19955;-70
2021/09/15 10:22:23;;;;;;;;;;;;;;;;;;5032155;28;19936;-66
2021/09/15 10:24:50;;;;;;;;;;;;;;;;;;5034404;28;19929;-67
2021/09/15 10:27:17;;;;;;;;;;;;;;;;;;5032993;28;19929;-66
2021/09/15 10:29:44;;;;;;;;;;;;;;;;;;5034039;28;19925;-66
2021/09/15 10:32:11;;;;;;;;;;;;;;;;;;5033459;28;19950;-68
2021/09/15 10:34:38;;;;;;;;;;;;;;;;;;5034250;28;19931;-65
2021/09/15 10:37:05;;;;;;;;;;;;;;;;;;5036226;28;19960;-70
2021/09/15 10:39:31;;;;;;;;;;;;;;;;;;5034503;28;19925;-66
2021/09/15 10:41:58;;;;;;;;;;;;;;;;;;5031140;28;20185;-68
2021/09/15 10:44:25;;;;;;;;;;;;;;;;;;5062624;28;19928;-66
2021/09/15 10:46:52;;;;;;;;;;;;;;;;;;5063341;28;19924;-65
2021/09/15 10:49:19;;;;;;;;;;;;;;;;;;5060189;28;19931;-66
2021/09/15 10:51:46;;;;;;;;;;;;;;;;;;5058108;28;19932;-65
2021/09/15 10:54:13;;;;;;;;;;;;;;;;;;5063333;28;20400;-66
2021/09/15 10:56:40;;;;;;;;;;;;;;;;;;5062392;28;19924;-66
2021/09/15 10:59:07;;;;;;;;;;;;;;;;;;5061449;28;19932;-70
2021/09/15 11:01:34;;;;;;;;;;;;;;;;;;5054477;28;19925;-66
2021/09/15 11:04:01;;;;;;;;;;;;;;;;;;5066559;28;20126;-66
2021/09/15 11:06:28;;;;;;;;;;;;;;;;;;5063469;28;19924;-67
2021/09/15 11:08:55;;;;;;;;;;;;;;;;;;5061580;28;19931;-66
2021/09/15 11:11:22;;;;;;;;;;;;;;;;;;5048956;28;19925;-66
2021/09/15 11:13:49;;;;;;;;;;;;;;;;;;5063270;28;19959;-64
2021/09/15 11:16:16;;;;;;;;;;;;;;;;;;5063110;28;19972;-69
2021/09/15 11:18:43;;;;;;;;;;;;;;;;;;5062061;28;19924;-66
2021/09/15 11:21:11;;;;;;;;;;;;;;;;;;5055937;28;19925;-67
2021/09/15 11:23:38;;;;;;;;;;;;;;;;;;5050965;28;20283;-67
2021/09/15 11:26:05;;;;;;;;;;;;;;;;;;5062857;28;19928;-68
2021/09/15 11:28:32;;;;;;;;;;;;;;;;;;5062032;28;19932;-66
2021/09/15 11:30:59;;;;;;;;;;;;;;;;;;5055344;28;19925;-65
2021/09/15 11:33:26;;;;;;;;;;;;;;;;;;5045468;28;19929;-69
2021/09/15 11:35:53;;;;;;;;;;;;;;;;;;5058335;28;19924;-65
2021/09/15 11:38:20;;;;;;;;;;;;;;;;;;5062353;28;19924;-65
2021/09/15 11:40:47;;;;;;;;;;;;;;;;;;5056193;28;20032;-66
2021/09/15 11:43:14;;;;;;;;;;;;;;;;;;5049446;28;19931;-67
2021/09/15 11:45:42;;;;;;;;;;;;;;;;;;5033062;28;19925;-66
2021/09/15 11:48:10;;;;;;;;;;;;;;;;;;5035764;28;19924;-66
2021/09/15 11:50:37;;;;;;;;;;;;;;;;;;5023815;28;19964;-67
2021/09/15 11:53:06;;;;;;;;;;;;;;;;;;5032365;28;19925;-65
2021/09/15 11:55:36;;;;;;;;;;;;;;;;;;5033814;28;19925;-68
2021/09/15 11:58:03;;;;;;;;;;;;;;;;;;5035261;28;19925;-66
2021/09/15 12:00:30;;;;;;;;;;;;;;;;;;5032036;28;20301;-68
2021/09/15 12:02:57;;;;;;;;;;;;;;;;;;5025925;28;19924;-68
2021/09/15 12:05:24;;;;;;;;;;;;;;;;;;5033353;28;19926;-65
2021/09/15 12:07:51;;;;;;;;;;;;;;;;;;5035726;28;19925;-66
2021/09/15 12:10:18;;;;;;;;;;;;;;;;;;5028839;28;19932;-65
2021/09/15 12:12:45;;;;;;;;;;;;;;;;;;5027636;28;19932;-69
2021/09/15 12:15:12;;;;;;;;;;;;;;;;;;5032549;28;19925;-69
2021/09/15 12:17:39;;;;;;;;;;;;;;;;;;5035558;28;20303;-64
2021/09/15 12:20:06;;;;;;;;;;;;;;;;;;5028961;28;19988;-67
2021/09/15 12:22:33;;;;;;;;;;;;;;;;;;5031500;28;19925;-68
2021/09/15 12:24:59;;;;;;;;;;;;;;;;;;5032544;28;19925;-69
2021/09/15 12:27:26;;;;;;;;;;;;;;;;;;5035564;28;19928;-69
2021/09/15 12:29:53;;;;;;;;;;;;;;;;;;5030136;28;20028;-67
2021/09/15 12:32:20;;;;;;;;;;;;;;;;;;5031607;28;20358;-67
2021/09/15 12:34:47;;;;;;;;;;;;;;;;;;5031839;28;19925;-66
2021/09/15 12:37:14;;;;;;;;;;;;;;;;;;5035178;28;19924;-67
2021/09/15 12:39:41;;;;;;;;;;;;;;;;;;5029352;28;20377;-66
2021/09/15 12:42:08;;;;;;;;;;;;;;;;;;5032087;28;19929;-69
2021/09/15 12:44:35;;;;;;;;;;;;;;;;;;5062061;28;19924;-69
2021/09/15 12:47:02;;;;;;;;;;;;;;;;;;5053730;28;19924;-72
2021/09/15 12:49:29;;;;;;;;;;;;;;;;;;5055768;28;20274;-68
2021/09/15 12:51:56;;;;;;;;;;;;;;;;;;5060813;28;19929;-65
2021/09/15 12:54:23;;;;;;;;;;;;;;;;;;5061537;28;19931;-69
2021/09/15 12:56:50;;;;;;;;;;;;;;;;;;5062208;28;19925;-65
2021/09/15 12:59:17;;;;;;;;;;;;;;;;;;5056388;28;19931;-68
2021/09/15 13:01:44;;;;;;;;;;;;;;;;;;5056851;28;19932;-66
2021/09/15 13:04:11;;;;;;;;;;;;;;;;;;5065469;28;19930;-66
2021/09/15 13:06:38;;;;;;;;;;;;;;;;;;5061711;28;19978;-65
2021/09/15 13:09:05;;;;;;;;;;;;;;;;;;5057062;28;19925;-70
2021/09/15 13:11:32;;;;;;;;;;;;;;;;;;5059846;28;20278;-67
2021/09/15 13:13:59;;;;;;;;;;;;;;;;;;5065795;28;19925;-68
2021/09/15 13:16:26;;;;;;;;;;;;;;;;;;5065201;28;19955;-67
2021/09/15 13:18:53;;;;;;;;;;;;;;;;;;5061654;28;19929;-70
2021/09/15 13:21:20;;;;;;;;;;;;;;;;;;5060930;28;19932;-68
2021/09/15 13:23:47;;;;;;;;;;;;;;;;;;5065493;28;19924;-68
2021/09/15 13:26:14;;;;;;;;;;;;;;;;;;5065224;28;20372;-66
2021/09/15 13:28:41;;;;;;;;;;;;;;;;;;5062022;28;19924;-66
2021/09/15 13:31:08;;;;;;;;;;;;;;;;;;5060537;28;19925;-66
2021/09/15 13:33:35;;;;;;;;;;;;;;;;;;5065116;28;20019;-68
2021/09/15 13:36:02;;;;;;;;;;;;;;;;;;5064887;28;19924;-66
2021/09/15 13:38:29;;;;;;;;;;;;;;;;;;5062152;28;19929;-67
2021/09/15 13:40:56;;;;;;;;;;;;;;;;;;5059761;28;20333;-67
2021/09/15 13:43:23;;;;;;;;;;;;;;;;;;5049043;28;19932;-69
2021/09/15 13:45:50;;;;;;;;;;;;;;;;;;5036468;28;20024;-64
2021/09/15 13:48:17;;;;;;;;;;;;;;;;;;5035928;28;20396;-68
2021/09/15 13:50:44;;;;;;;;;;;;;;;;;;5025901;28;19925;-68
2021/09/15 13:53:11;;;;;;;;;;;;;;;;;;5034827;28;19932;-68
2021/09/15 13:55:38;;;;;;;;;;;;;;;;;;5036231;28;19947;-67
2021/09/15 13:58:05;;;;;;;;;;;;;;;;;;5036716;28;20031;-67
2021/09/15 14:00:32;;;;;;;;;;;;;;;;;;5031314;28;19948;-65
2021/09/15 14:02:59;;;;;;;;;;;;;;;;;;5034213;28;19932;-68
2021/09/15 14:05:26;;;;;;;;;;;;;;;;;;5037134;28;19929;-69
2021/09/15 14:07:53;;;;;;;;;;;;;;;;;;5036609;28;19970;-66
2021/09/15 14:10:20;;;;;;;;;;;;;;;;;;5034237;28;20012;-66
2021/09/15 14:12:47;;;;;;;;;;;;;;;;;;5034418;28;20008;-68
2021/09/15 14:15:14;;;;;;;;;;;;;;;;;;5036066;28;20381;-66
2021/09/15 14:17:41;;;;;;;;;;;;;;;;;;5036442;28;19931;-70
2021/09/15 14:20:08;;;;;;;;;;;;;;;;;;5030780;28;19926;-66
2021/09/15 14:22:35;;;;;;;;;;;;;;;;;;5026726;28;19976;-68
2021/09/15 14:25:02;;;;;;;;;;;;;;;;;;5034725;28;20037;-72
2021/09/15 14:27:29;;;;;;;;;;;;;;;;;;5036730;28;20274;-66
2021/09/15 14:29:55;;;;;;;;;;;;;;;;;;5030181;28;19926;-67
2021/09/15 14:32:22;;;;;;;;;;;;;;;;;;5033395;28;20284;-67
2021/09/15 14:34:49;;;;;;;;;;;;;;;;;;5034550;28;19931;-66
2021/09/15 14:37:16;;;;;;;;;;;;;;;;;;5037157;28;20301;-69
2021/09/15 14:39:43;;;;;;;;;;;;;;;;;;5030387;28;19926;-68
2021/09/15 14:42:10;;;;;;;;;;;;;;;;;;5034802;28;19932;-68
2021/09/15 14:44:37;;;;;;;;;;;;;;;;;;5063297;28;19935;-67
2021/09/15 14:47:06;;;;;;;;;;;;;;;;;;5062278;28;20389;-66
2021/09/15 14:49:33;;;;;;;;;;;;;;;;;;5056940;28;19929;-68
2021/09/15 14:52:00;;;;;;;;;;;;;;;;;;5062710;28;19931;-71
2021/09/15 14:54:27;;;;;;;;;;;;;;;;;;5063254;28;19928;-66
2021/09/15 14:56:59;;;;;;;;;;;;;;;;;;5064947;28;19989;-67
2021/09/15 14:59:26;;;;;;;;;;;;;;;;;;5050751;28;19929;-66
2021/09/15 15:01:53;;;;;;;;;;;;;;;;;;5061440;28;20019;-66
2021/09/15 15:04:20;;;;;;;;;;;;;;;;;;5062922;28;20015;-66
2021/09/15 15:06:49;;;;;;;;;;;;;;;;;;5062970;28;19978;-65
2021/09/15 15:09:16;;;;;;;;;;;;;;;;;;5055981;28;20305;-67
2021/09/15 15:11:43;;;;;;;;;;;;;;;;;;5062914;28;19924;-66
2021/09/15 15:14:10;;;;;;;;;;;;;;;;;;5048773;28;19929;-66
2021/09/15 15:16:37;;;;;;;;;;;;;;;;;;5049282;28;19929;-66
2021/09/15 15:19:04;;;;;;;;;;;;;;;;;;5062789;28;19947;-65
2021/09/15 15:21:31;;;;;;;;;;;;;;;;;;5062401;28;20387;-65
2021/09/15 15:23:58;;;;;;;;;;;;;;;;;;5063248;28;19924;-67
2021/09/15 15:26:25;;;;;;;;;;;;;;;;;;5066062;28;19924;-66
2021/09/15 15:28:52;;;;;;;;;;;;;;;;;;5060310;28;19929;-66
2021/09/15 15:31:19;;;;;;;;;;;;;;;;;;5061661;28;19924;-68
2021/09/15 15:33:46;;;;;;;;;;;;;;;;;;5065680;28;19934;-65
2021/09/15 15:36:13;;;;;;;;;;;;;;;;;;5062782;28;20019;-67
2021/09/15 15:38:42;;;;;;;;;;;;;;;;;;5056842;28;20320;-66
2021/09/15 15:41:09;;;;;;;;;;;;;;;;;;5061257;28;19925;-66
2021/09/15 15:43:36;;;;;;;;;;;;;;;;;;5069593;22;19964;-66
2021/09/15 15:46:03;;;;;;;;;;;;;;;;;;5059820;28;19959;-65
2021/09/15 15:48:30;;;;;;;;;;;;;;;;;;5053385;28;20285;-65
2021/09/15 15:50:57;;;;;;;;;;;;;;;;;;5046292;28;20635;-65
2021/09/15 15:53:24;;;;;;;;;;;;;;;;;;5051947;28;19929;-65
2021/09/15 15:55:51;;;;;;;;;;;;;;;;;;5048061;28;20361;-65
2021/09/15 15:58:19;;;;;;;;;;;;;;;;;;5052068;28;19925;-64
2021/09/15 16:00:46;;;;;;;;;;;;;;;;;;5051031;28;19929;-65
2021/09/15 16:03:13;;;;;;;;;;;;;;;;;;5055696;28;20353;-65
2021/09/15 16:05:42;;;;;;;;;;;;;;;;;;5051659;28;20430;-65
2021/09/15 16:08:09;;;;;;;;;;;;;;;;;;5051766;28;19925;-65
2021/09/15 16:10:36;;;;;;;;;;;;;;;;;;5050831;28;20436;-64
2021/09/15 16:13:03;;;;;;;;;;;;;;;;;;5052222;28;20377;-64
2021/09/15 16:15:30;;;;;;;;;;;;;;;;;;5055672;28;20376;-64
2021/09/15 16:17:57;;;;;;;;;;;;;;;;;;5050266;28;19924;-64
2021/09/15 16:20:24;;;;;;;;;;;;;;;;;;5050256;28;19925;-64
2021/09/15 16:22:51;;;;;;;;;;;;;;;;;;5051622;28;20403;-65
2021/09/15 16:25:18;;;;;;;;;;;;;;;;;;5055418;28;19924;-65
2021/09/15 16:27:45;;;;;;;;;;;;;;;;;;5050497;28;19928;-65
2021/09/15 16:30:12;;;;;;;;;;;;;;;;;;5051225;28;19932;-65
2021/09/15 16:32:39;;;;;;;;;;;;;;;;;;5052836;28;19931;-65
2021/09/15 16:35:06;;;;;;;;;;;;;;;;;;5051237;28;20011;-64
2021/09/15 16:37:33;;;;;;;;;;;;;;;;;;5050922;28;19960;-64
2021/09/15 16:40:00;;;;;;;;;;;;;;;;;;5050311;28;20023;-64
2021/09/15 16:42:27;;;;;;;;;;;;;;;;;;5054883;28;19959;-64
2021/09/15 16:44:54;;;;;;;;;;;;;;;;;;5061630;28;19928;-66
2021/09/15 16:47:21;;;;;;;;;;;;;;;;;;5061113;28;20371;-66
2021/09/15 16:49:48;;;;;;;;;;;;;;;;;;5061414;28;19933;-65
2021/09/15 16:52:15;;;;;;;;;;;;;;;;;;5066221;28;19924;-65